createdAt,value
2023-03-27T00:00:16.332Z,5.30
2023-03-27T00:02:47.000Z,5.30
2023-03-27T00:05:16.237Z,5.30
2023-03-27T00:07:44.568Z,5.20
2023-03-27T00:10:13.046Z,5.30
2023-03-27T00:12:40.896Z,5.30
2023-03-27T00:15:09.758Z,5.20
2023-03-27T00:17:37.658Z,5.20
2023-03-27T00:20:07.649Z,5.20
2023-03-27T00:22:36.040Z,5.10
2023-03-27T00:25:05.184Z,5.10
2023-03-27T00:27:33.077Z,5.00
2023-03-27T00:30:00.953Z,5.00
2023-03-27T00:32:28.812Z,4.90
2023-03-27T00:34:56.627Z,4.90
2023-03-27T00:37:25.911Z,4.90
2023-03-27T00:39:54.110Z,4.90
2023-03-27T00:42:24.545Z,4.80
2023-03-27T00:44:53.942Z,4.80
2023-03-27T00:47:30.919Z,4.80
2023-03-27T00:50:00.306Z,4.80
2023-03-27T00:52:31.497Z,4.70
2023-03-27T00:55:03.833Z,4.70
2023-03-27T00:57:32.013Z,4.70
2023-03-27T01:00:01.063Z,4.70
2023-03-27T01:02:29.575Z,4.70
2023-03-27T01:04:58.308Z,4.70
2023-03-27T01:07:26.165Z,4.70
2023-03-27T01:09:56.387Z,4.70
2023-03-27T01:12:34.583Z,4.60
2023-03-27T01:15:15.379Z,4.60
2023-03-27T01:17:58.204Z,4.60
2023-03-27T01:21:06.553Z,4.60
2023-03-27T01:24:12.716Z,4.50
2023-03-27T01:27:05.369Z,4.50
2023-03-27T01:29:42.882Z,4.40
2023-03-27T01:33:02.476Z,4.40
2023-03-27T01:35:57.922Z,4.30
2023-03-27T01:39:07.328Z,4.30
2023-03-27T01:41:43.435Z,4.30
2023-03-27T01:44:16.719Z,4.30
2023-03-27T01:46:51.219Z,4.30
2023-03-27T01:49:24.986Z,4.20
2023-03-27T01:51:57.334Z,4.20
2023-03-27T01:54:29.095Z,4.20
2023-03-27T01:57:04.344Z,4.10
2023-03-27T01:59:38.592Z,4.10
2023-03-27T02:02:11.444Z,4.10
2023-03-27T02:04:46.860Z,4.10
2023-03-27T02:07:19.724Z,4.10
2023-03-27T02:09:50.857Z,4.00
2023-03-27T02:12:23.476Z,4.00
2023-03-27T02:14:55.408Z,4.00
2023-03-27T02:17:26.421Z,4.00
2023-03-27T02:19:59.113Z,4.00
2023-03-27T02:22:38.509Z,3.90
2023-03-27T02:25:27.463Z,3.90
2023-03-27T02:28:09.774Z,3.90
2023-03-27T02:30:43.348Z,3.90
2023-03-27T02:33:19.027Z,3.90
2023-03-27T02:35:55.268Z,3.90
2023-03-27T02:38:32.910Z,3.80
2023-03-27T02:41:10.156Z,3.80
2023-03-27T02:43:46.789Z,3.80
2023-03-27T02:46:18.799Z,3.70
2023-03-27T02:48:49.988Z,3.70
2023-03-27T02:51:23.955Z,3.60
2023-03-27T02:53:57.596Z,3.60
2023-03-27T02:56:28.322Z,3.60
2023-03-27T02:59:01.316Z,3.60
2023-03-27T03:01:30.750Z,3.60
2023-03-27T03:04:01.157Z,3.50
2023-03-27T03:06:30.646Z,3.50
2023-03-27T03:09:02.848Z,3.50
2023-03-27T03:11:31.270Z,3.40
2023-03-27T03:14:00.661Z,3.40
2023-03-27T03:16:29.668Z,3.40
2023-03-27T03:18:57.831Z,3.30
2023-03-27T03:21:25.687Z,3.30
2023-03-27T03:23:57.614Z,3.20
2023-03-27T03:26:27.053Z,3.20
2023-03-27T03:29:01.347Z,3.10
2023-03-27T03:31:44.523Z,3.00
2023-03-27T03:34:13.483Z,3.00
2023-03-27T03:36:42.973Z,3.00
2023-03-27T03:39:12.604Z,3.00
2023-03-27T03:41:40.840Z,2.90
2023-03-27T03:44:09.971Z,2.90
2023-03-27T03:46:39.966Z,2.90
2023-03-27T03:49:07.975Z,2.80
2023-03-27T03:51:36.863Z,2.80
2023-03-27T03:54:06.670Z,2.70
2023-03-27T03:56:34.745Z,2.70
2023-03-27T03:59:02.886Z,2.60
2023-03-27T04:01:30.839Z,2.60
2023-03-27T04:04:00.304Z,2.50
2023-03-27T04:06:30.891Z,2.50
2023-03-27T04:08:59.138Z,2.50
2023-03-27T04:11:26.984Z,2.50
2023-03-27T04:13:54.818Z,2.50
2023-03-27T04:16:22.754Z,2.50
2023-03-27T04:18:54.391Z,2.40
2023-03-27T04:21:26.550Z,2.40
2023-03-27T04:23:54.417Z,2.40
2023-03-27T04:26:26.366Z,2.30
2023-03-27T04:28:54.721Z,2.30
2023-03-27T04:31:22.664Z,2.30
2023-03-27T04:33:52.337Z,2.30
2023-03-27T04:36:20.625Z,2.20
2023-03-27T04:38:50.096Z,2.20
2023-03-27T04:41:18.482Z,2.20
2023-03-27T04:43:46.349Z,2.30
2023-03-27T04:46:14.285Z,2.30
2023-03-27T04:48:42.609Z,2.30
2023-03-27T04:51:10.489Z,2.30
2023-03-27T04:53:42.871Z,2.40
2023-03-27T04:56:12.394Z,2.40
2023-03-27T04:58:41.373Z,2.40
2023-03-27T05:01:09.267Z,2.30
2023-03-27T05:03:37.188Z,2.30
2023-03-27T05:06:05.701Z,2.20
2023-03-27T05:08:33.807Z,2.20
2023-03-27T05:11:01.830Z,2.10
2023-03-27T05:13:31.097Z,2.10
2023-03-27T05:16:01.684Z,2.10
2023-03-27T05:18:30.988Z,2.00
2023-03-27T05:20:59.353Z,1.90
2023-03-27T05:23:27.379Z,1.90
2023-03-27T05:26:00.025Z,1.80
2023-03-27T05:28:30.566Z,1.80
2023-03-27T05:30:58.907Z,1.80
2023-03-27T05:33:26.970Z,1.80
2023-03-27T05:35:54.874Z,1.80
2023-03-27T05:38:24.617Z,1.80
2023-03-27T05:40:53.254Z,1.80
2023-03-27T05:43:21.314Z,2.00
2023-03-27T05:45:50.560Z,2.40
2023-03-27T05:48:18.468Z,2.80
2023-03-27T05:50:46.845Z,3.10
2023-03-27T05:53:15.663Z,3.40
2023-03-27T05:55:43.588Z,3.40
2023-03-27T05:58:13.227Z,3.50
2023-03-27T06:00:43.341Z,3.80
2023-03-27T06:03:14.485Z,4.30
2023-03-27T06:05:42.639Z,4.60
2023-03-27T06:08:11.649Z,4.90
2023-03-27T06:10:43.297Z,5.20
2023-03-27T06:13:13.626Z,5.30
2023-03-27T06:15:43.426Z,5.20
2023-03-27T06:18:12.828Z,5.20
2023-03-27T06:20:42.379Z,5.40
2023-03-27T06:23:10.269Z,5.70
2023-03-27T06:25:39.806Z,6.00
2023-03-27T06:28:09.489Z,6.40
2023-03-27T06:30:38.878Z,6.70
2023-03-27T06:33:08.704Z,6.90
2023-03-27T06:35:38.077Z,7.30
2023-03-27T06:38:06.523Z,7.60
2023-03-27T06:40:36.048Z,7.90
2023-03-27T06:43:05.806Z,8.30
2023-03-27T06:45:35.657Z,8.40
2023-03-27T06:48:15.427Z,8.40
2023-03-27T06:50:50.937Z,8.40
2023-03-27T06:55:51.326Z,8.40
2023-03-27T06:58:19.739Z,8.50
2023-03-27T07:00:49.600Z,8.40
2023-03-27T07:03:18.953Z,8.40
2023-03-27T07:05:48.989Z,8.40
2023-03-27T07:08:24.775Z,8.40
2023-03-27T07:11:09.831Z,8.50
2023-03-27T07:13:40.989Z,8.70
2023-03-27T07:16:10.286Z,8.80
2023-03-27T07:18:38.186Z,8.80
2023-03-27T07:21:07.697Z,8.80
2023-03-27T07:23:37.196Z,9.00
2023-03-27T07:26:05.409Z,9.00
2023-03-27T07:28:33.495Z,8.90
2023-03-27T07:31:01.949Z,8.90
2023-03-27T07:33:29.925Z,9.30
2023-03-27T07:35:58.041Z,9.40
2023-03-27T07:38:26.310Z,9.30
2023-03-27T07:40:55.523Z,9.50
2023-03-27T07:43:23.419Z,9.50
2023-03-27T07:45:51.514Z,9.10
2023-03-27T07:48:19.609Z,8.20
2023-03-27T07:50:47.769Z,7.80
2023-03-27T07:53:34.094Z,7.30
2023-03-27T07:56:03.955Z,6.70
2023-03-27T07:58:32.038Z,6.80
2023-03-27T08:01:02.461Z,6.50
2023-03-27T08:03:32.073Z,6.30
2023-03-27T08:06:01.479Z,5.80
2023-03-27T08:08:29.681Z,5.80
2023-03-27T08:10:58.346Z,6.10
2023-03-27T08:13:27.791Z,6.70
2023-03-27T08:16:04.200Z,7.40
2023-03-27T08:18:32.128Z,8.00
2023-03-27T08:21:01.940Z,7.80
2023-03-27T08:23:31.343Z,7.50
2023-03-27T08:26:00.639Z,7.40
2023-03-27T08:28:30.108Z,7.40
2023-03-27T08:31:02.906Z,7.60
2023-03-27T08:33:31.690Z,8.10
2023-03-27T08:35:59.815Z,8.30
2023-03-27T08:38:28.613Z,8.60
2023-03-27T08:40:59.151Z,8.50
2023-03-27T08:43:31.672Z,8.30
2023-03-27T08:46:02.958Z,8.50
2023-03-27T08:48:34.919Z,8.40
2023-03-27T08:51:06.407Z,8.00
2023-03-27T08:53:41.707Z,7.80
2023-03-27T08:56:14.137Z,7.50
2023-03-27T08:58:44.499Z,7.30
2023-03-27T09:01:22.041Z,7.10
2023-03-27T09:03:57.408Z,7.30
2023-03-27T09:06:28.605Z,7.50
2023-03-27T09:09:05.004Z,7.40
2023-03-27T09:11:42.445Z,7.30
2023-03-27T09:14:19.412Z,6.90
2023-03-27T09:16:49.995Z,6.70
2023-03-27T09:19:26.094Z,6.60
2023-03-27T09:21:58.039Z,6.50
2023-03-27T09:24:30.458Z,6.50
2023-03-27T09:27:07.133Z,6.40
2023-03-27T09:29:40.449Z,6.30
2023-03-27T09:32:14.705Z,6.40
2023-03-27T09:34:43.061Z,6.90
2023-03-27T09:37:12.978Z,7.80
2023-03-27T09:39:46.783Z,8.40
2023-03-27T09:42:19.335Z,8.80
2023-03-27T09:44:52.116Z,9.50
2023-03-27T09:47:26.448Z,9.40
2023-03-27T09:49:57.516Z,9.10
2023-03-27T09:52:36.894Z,8.60
2023-03-27T09:55:06.413Z,8.10
2023-03-27T09:57:37.428Z,7.50
2023-03-27T10:00:26.977Z,6.90
2023-03-27T10:03:01.813Z,6.60
2023-03-27T10:05:31.523Z,6.50
2023-03-27T10:08:00.949Z,6.40
2023-03-27T10:10:32.395Z,7.10
2023-03-27T10:13:03.389Z,8.00
2023-03-27T10:15:35.687Z,8.70
2023-03-27T10:18:09.567Z,9.40
2023-03-27T10:20:37.492Z,9.60
2023-03-27T10:23:10.113Z,9.50
2023-03-27T10:25:40.102Z,9.20
2023-03-27T10:28:18.544Z,8.50
2023-03-27T10:30:49.229Z,7.60
2023-03-27T10:33:30.758Z,7.20
2023-03-27T10:35:59.931Z,6.80
2023-03-27T10:38:28.686Z,6.20
2023-03-27T10:40:57.833Z,5.60
2023-03-27T10:43:31.532Z,5.10
2023-03-27T10:46:04.964Z,4.60
2023-03-27T10:48:42.796Z,4.20
2023-03-27T10:51:23.683Z,4.00
2023-03-27T10:53:57.141Z,3.90
2023-03-27T10:56:29.266Z,4.40
2023-03-27T10:59:01.785Z,5.10
2023-03-27T11:01:36.193Z,5.80
2023-03-27T11:04:09.822Z,6.50
2023-03-27T11:06:42.312Z,7.10
2023-03-27T11:09:17.205Z,7.60
2023-03-27T11:11:50.325Z,8.30
2023-03-27T11:14:21.812Z,8.70
2023-03-27T11:16:55.470Z,9.00
2023-03-27T11:19:33.831Z,9.40
2023-03-27T11:22:06.876Z,9.90
2023-03-27T11:24:39.366Z,9.70
2023-03-27T11:27:14.718Z,9.60
2023-03-27T11:29:48.199Z,9.60
2023-03-27T11:32:28.390Z,9.40
2023-03-27T11:35:04.212Z,7.70
2023-03-27T11:37:41.103Z,6.60
2023-03-27T11:40:14.660Z,5.40
2023-03-27T11:42:44.872Z,4.90
2023-03-27T11:45:14.068Z,4.60
2023-03-27T11:47:57.243Z,4.60
2023-03-27T11:50:33.773Z,4.60
2023-03-27T11:53:30.402Z,4.60
2023-03-27T11:56:16.814Z,4.80
2023-03-27T11:58:56.615Z,5.60
2023-03-27T12:01:28.009Z,6.30
2023-03-27T12:04:15.589Z,6.70
2023-03-27T12:06:51.034Z,7.20
2023-03-27T12:09:41.471Z,7.80
2023-03-27T12:12:28.175Z,8.00
2023-03-27T12:15:07.055Z,8.40
2023-03-27T12:17:48.142Z,8.70
2023-03-27T12:20:52.782Z,9.10
2023-03-27T12:23:41.519Z,9.40
2023-03-27T12:26:21.339Z,9.90
2023-03-27T12:29:00.657Z,10.10
2023-03-27T12:31:53.776Z,10.20
2023-03-27T12:34:41.438Z,10.20
2023-03-27T12:37:12.529Z,10.40
2023-03-27T12:39:51.902Z,10.50
2023-03-27T12:42:44.963Z,10.70
2023-03-27T12:45:18.251Z,11.00
2023-03-27T12:47:47.112Z,11.30
2023-03-27T12:50:21.358Z,11.50
2023-03-27T12:52:53.225Z,11.60
2023-03-27T12:55:36.057Z,11.40
2023-03-27T12:58:06.192Z,11.00
2023-03-27T13:00:34.363Z,11.10
2023-03-27T13:03:26.071Z,11.20
2023-03-27T13:06:22.627Z,10.40
2023-03-27T13:09:19.518Z,9.80
2023-03-27T13:12:08.353Z,9.50
2023-03-27T13:14:53.284Z,9.50
2023-03-27T13:17:46.446Z,10.10
2023-03-27T13:20:24.204Z,10.30
2023-03-27T13:23:06.787Z,10.40
2023-03-27T13:25:54.788Z,10.70
2023-03-27T13:28:32.446Z,10.70
2023-03-27T13:31:01.825Z,10.50
2023-03-27T13:33:43.621Z,10.20
2023-03-27T13:36:19.350Z,9.80
2023-03-27T13:39:15.012Z,9.30
2023-03-27T13:42:02.577Z,9.10
2023-03-27T13:44:41.900Z,8.70
2023-03-27T13:47:29.934Z,8.50
2023-03-27T13:50:16.678Z,8.30
2023-03-27T13:53:13.271Z,8.20
2023-03-27T13:56:03.195Z,8.20
2023-03-27T13:59:15.333Z,8.40
2023-03-27T14:01:55.819Z,8.60
2023-03-27T14:04:45.885Z,9.00
2023-03-27T14:07:46.562Z,9.00
2023-03-27T14:10:42.085Z,9.20
2023-03-27T14:13:26.643Z,9.30
2023-03-27T14:16:17.437Z,9.30
2023-03-27T14:19:10.422Z,9.60
2023-03-27T14:21:52.323Z,9.70
2023-03-27T14:24:30.438Z,9.80
2023-03-27T14:26:59.607Z,9.80
2023-03-27T14:29:28.896Z,9.70
2023-03-27T14:32:05.850Z,9.70
2023-03-27T14:34:43.766Z,9.70
2023-03-27T14:37:29.029Z,9.50
2023-03-27T14:39:57.605Z,9.20
2023-03-27T14:42:32.005Z,8.90
2023-03-27T14:45:17.996Z,8.50
2023-03-27T14:47:50.672Z,8.20
2023-03-27T14:50:19.335Z,7.80
2023-03-27T14:52:52.535Z,7.60
2023-03-27T14:55:22.123Z,7.30
2023-03-27T14:57:51.028Z,7.50
2023-03-27T15:00:23.517Z,7.80
2023-03-27T15:02:55.461Z,8.00
2023-03-27T15:05:23.595Z,8.10
2023-03-27T15:07:52.044Z,8.10
2023-03-27T15:10:26.222Z,8.00
2023-03-27T15:12:56.061Z,7.90
2023-03-27T15:15:27.622Z,8.00
2023-03-27T15:17:59.779Z,8.00
2023-03-27T15:20:31.822Z,8.20
2023-03-27T15:23:03.633Z,8.30
2023-03-27T15:25:37.315Z,8.40
2023-03-27T15:28:12.819Z,8.50
2023-03-27T15:30:45.854Z,8.50
2023-03-27T15:33:20.345Z,8.50
2023-03-27T15:35:51.614Z,8.40
2023-03-27T15:38:26.394Z,8.10
2023-03-27T15:41:02.757Z,7.90
2023-03-27T15:43:31.545Z,7.70
2023-03-27T15:46:12.848Z,7.60
2023-03-27T15:48:45.301Z,7.50
2023-03-27T15:51:27.864Z,7.20
2023-03-27T15:53:56.717Z,7.20
2023-03-27T15:56:27.175Z,7.20
2023-03-27T15:58:58.317Z,7.20
2023-03-27T16:01:30.004Z,7.10
2023-03-27T16:04:04.559Z,7.10
2023-03-27T16:06:36.651Z,7.00
2023-03-27T16:09:05.895Z,7.00
2023-03-27T16:11:42.760Z,7.00
2023-03-27T16:14:22.790Z,6.80
2023-03-27T16:17:09.181Z,6.50
2023-03-27T16:19:45.029Z,6.20
2023-03-27T16:22:13.231Z,5.80
2023-03-27T16:24:41.403Z,5.40
2023-03-27T16:27:11.102Z,5.20
2023-03-27T16:29:38.985Z,5.00
2023-03-27T16:32:06.913Z,4.80
2023-03-27T16:34:34.972Z,4.80
2023-03-27T16:37:04.392Z,4.60
2023-03-27T16:39:32.383Z,4.50
2023-03-27T16:42:00.325Z,4.50
2023-03-27T16:44:28.198Z,4.40
2023-03-27T16:46:56.357Z,4.30
2023-03-27T16:49:24.200Z,4.30
2023-03-27T16:51:52.057Z,4.30
2023-03-27T16:54:21.260Z,4.30
2023-03-27T16:56:49.137Z,4.10
2023-03-27T16:59:17.182Z,4.00
2023-03-27T17:01:45.118Z,3.80
2023-03-27T17:04:13.449Z,3.80
2023-03-27T17:06:41.714Z,3.80
2023-03-27T17:09:11.101Z,3.80
2023-03-27T17:11:40.600Z,3.80
2023-03-27T17:14:08.447Z,3.80
2023-03-27T17:16:36.383Z,3.70
2023-03-27T17:19:04.256Z,3.70
2023-03-27T17:21:32.197Z,3.60
2023-03-27T17:24:01.041Z,3.60
2023-03-27T17:26:30.998Z,3.70
2023-03-27T17:29:00.447Z,3.70
2023-03-27T17:31:30.675Z,3.60
2023-03-27T17:33:58.824Z,3.60
2023-03-27T17:36:39.655Z,3.60
2023-03-27T17:39:10.966Z,3.50
2023-03-27T17:41:38.825Z,3.50
2023-03-27T17:44:08.393Z,3.40
2023-03-27T17:46:36.280Z,3.40
2023-03-27T17:49:04.233Z,3.40
2023-03-27T17:51:32.083Z,3.40
2023-03-27T17:54:00.183Z,3.40
2023-03-27T17:56:28.069Z,3.30
2023-03-27T17:58:55.941Z,3.30
2023-03-27T18:01:25.719Z,3.30
2023-03-27T18:03:55.164Z,3.30
2023-03-27T18:06:23.145Z,3.20
2023-03-27T18:08:51.002Z,3.20
2023-03-27T18:11:18.999Z,3.10
2023-03-27T18:13:51.334Z,3.10
2023-03-27T18:16:20.001Z,3.10
2023-03-27T18:18:50.966Z,3.10
2023-03-27T18:21:18.896Z,3.00
2023-03-27T18:23:46.933Z,2.90
2023-03-27T18:26:15.898Z,2.80
2023-03-27T18:28:43.936Z,2.80
2023-03-27T18:31:13.476Z,2.90
2023-03-27T18:33:41.420Z,2.80
2023-03-27T18:36:11.992Z,2.80
2023-03-27T18:38:40.837Z,2.70
2023-03-27T18:41:08.951Z,2.70
2023-03-27T18:43:37.193Z,2.70
2023-03-27T18:46:07.151Z,2.60
2023-03-27T18:48:36.270Z,2.70
2023-03-27T18:51:06.318Z,2.70
2023-03-27T18:53:35.985Z,2.60
2023-03-27T18:56:04.435Z,2.50
2023-03-27T18:58:32.548Z,2.50
2023-03-27T19:01:00.817Z,2.50
2023-03-27T19:03:30.344Z,2.40
2023-03-27T19:06:02.195Z,2.50
2023-03-27T19:08:30.307Z,2.40
2023-03-27T19:10:59.744Z,2.50
2023-03-27T19:13:27.895Z,2.50
2023-03-27T19:15:55.736Z,2.50
2023-03-27T19:18:25.524Z,2.50
2023-03-27T19:20:53.380Z,2.50
2023-03-27T19:23:21.210Z,2.40
2023-03-27T19:25:49.575Z,2.40
2023-03-27T19:28:18.898Z,2.50
2023-03-27T19:30:46.979Z,2.50
2023-03-27T19:33:14.867Z,2.50
2023-03-27T19:35:42.794Z,2.50
2023-03-27T19:38:10.658Z,2.40
2023-03-27T19:40:38.535Z,2.40
2023-03-27T19:43:06.386Z,2.30
2023-03-27T19:45:35.587Z,2.30
2023-03-27T19:48:03.451Z,2.20
2023-03-27T19:50:31.753Z,2.20
2023-03-27T19:53:08.217Z,2.20
2023-03-27T19:55:36.733Z,2.10
2023-03-27T19:58:04.593Z,2.10
2023-03-27T20:00:32.648Z,2.10
2023-03-27T20:03:02.224Z,2.10
2023-03-27T20:05:30.382Z,2.00
2023-03-27T20:07:58.250Z,1.90
2023-03-27T20:10:27.121Z,2.00
2023-03-27T20:12:55.092Z,1.90
2023-03-27T20:15:23.033Z,1.90
2023-03-27T20:17:51.032Z,1.90
2023-03-27T20:20:20.395Z,1.80
2023-03-27T20:22:57.117Z,1.80
2023-03-27T20:25:28.316Z,1.80
2023-03-27T20:27:56.361Z,1.70
2023-03-27T20:30:24.243Z,1.70
2023-03-27T20:32:52.662Z,1.70
2023-03-27T20:35:24.795Z,1.70
2023-03-27T20:37:57.691Z,1.70
2023-03-27T20:40:26.434Z,1.70
2023-03-27T20:43:03.035Z,1.70
2023-03-27T20:45:31.498Z,1.60
2023-03-27T20:48:04.154Z,1.60
2023-03-27T20:50:35.294Z,1.60
2023-03-27T20:53:04.372Z,1.60
2023-03-27T20:55:34.682Z,1.50
2023-03-27T20:58:07.123Z,1.50
2023-03-27T21:00:35.134Z,1.60
2023-03-27T21:03:03.151Z,1.60
2023-03-27T21:05:32.647Z,1.60
2023-03-27T21:08:01.836Z,1.70
2023-03-27T21:10:29.721Z,1.70
2023-03-27T21:12:57.564Z,1.70
2023-03-27T21:15:25.675Z,1.80
2023-03-27T21:17:53.629Z,1.80
2023-03-27T21:20:21.589Z,1.80
2023-03-27T21:22:52.676Z,1.80
2023-03-27T21:25:22.913Z,1.90
2023-03-27T21:27:51.055Z,1.80
2023-03-27T21:30:18.987Z,1.80
2023-03-27T21:32:49.056Z,1.90
2023-03-27T21:35:17.156Z,1.90
2023-03-27T21:37:45.370Z,1.90
2023-03-27T21:40:13.889Z,1.90
2023-03-27T21:42:43.083Z,1.90
2023-03-27T21:45:11.318Z,1.90
2023-03-27T21:47:47.295Z,1.90
2023-03-27T21:50:15.954Z,1.90
2023-03-27T21:52:43.843Z,1.90
2023-03-27T21:55:11.726Z,1.90
2023-03-27T21:57:39.615Z,1.90
2023-03-27T22:00:10.374Z,1.90
2023-03-27T22:02:38.392Z,1.80
2023-03-27T22:05:07.376Z,1.90
2023-03-27T22:07:35.282Z,1.90
2023-03-27T22:10:05.443Z,1.90
2023-03-27T22:12:34.974Z,1.90
2023-03-27T22:15:02.962Z,1.80
2023-03-27T22:17:32.478Z,1.80
2023-03-27T22:20:00.383Z,1.80
2023-03-27T22:22:28.324Z,1.80
2023-03-27T22:24:56.195Z,1.90
2023-03-27T22:27:24.058Z,1.80
2023-03-27T22:29:51.891Z,1.80
2023-03-27T22:32:19.766Z,1.90
2023-03-27T22:34:50.733Z,1.90
2023-03-27T22:37:19.569Z,1.90
2023-03-27T22:39:47.831Z,1.90
2023-03-27T22:42:15.976Z,2.00
2023-03-27T22:44:43.899Z,2.10
2023-03-27T22:47:11.781Z,2.10
2023-03-27T22:49:39.627Z,2.10
2023-03-27T22:52:08.917Z,2.10
2023-03-27T22:54:36.763Z,2.10
2023-03-27T22:57:04.685Z,2.10
2023-03-27T22:59:32.569Z,2.10
2023-03-27T23:02:00.487Z,2.10
2023-03-27T23:04:29.888Z,2.20
2023-03-27T23:06:57.753Z,2.10
2023-03-27T23:09:26.954Z,2.10
2023-03-27T23:11:54.793Z,2.10
2023-03-27T23:14:22.646Z,2.00
2023-03-27T23:16:50.652Z,2.00
2023-03-27T23:19:18.741Z,2.10
2023-03-27T23:21:46.554Z,2.10
2023-03-27T23:24:14.370Z,2.00
2023-03-27T23:26:43.572Z,2.00
2023-03-27T23:29:11.403Z,1.90
2023-03-27T23:31:39.268Z,1.90
2023-03-27T23:34:07.165Z,1.80
2023-03-27T23:36:35.026Z,1.80
2023-03-27T23:39:03.032Z,1.70
2023-03-27T23:41:31.108Z,1.70
2023-03-27T23:44:00.345Z,1.70
2023-03-27T23:46:28.234Z,1.70
2023-03-27T23:48:56.072Z,1.60
2023-03-27T23:51:23.965Z,1.60
2023-03-27T23:53:51.864Z,1.60
2023-03-27T23:56:19.755Z,1.60
2023-03-27T23:58:47.564Z,1.60
